Dirgin, Texas
Current Conditions -  °F | °C
As of 12:53 PM on Friday 28 Nov 2014 (Local Time) from KGGG Reporting Station
Clear Clear  
Wind Chill: 66°   Ceiling: Unl
Heat Index: 66°   Visibility: 10mi
Dew Point: 45°   Wind: 12mph
Humidity: 47%   Direction: 200°SSW
Pressure: 30.2"   Gusts: NA
Location:  32.3175°N, 94.6057°W
Report Text: KGGG 281853Z 20010KT 10SM CLR 19/07 A3020 RMK AO2 SLP227 T01890072
Loading
Personal Weather Stations






























Interactive Weather Map New forecast layout! Learn more

10-Day Weather Forecast

Advertisements
Track Severe Weather on mobile